Terminal Aerodrome Forecast
Issued by NWS Jackson, KY

Home | Current Version | Previous Version | Text Only | Print | Product List | Glossary On
Versions: 1 2 3 4 5 6 7 8 9 10 11 12 13 14 15 16 17
000
FTUS43 KJKL 010700 AAA
TAFJKL
TAF AMD
KJKL 010700Z 0107/0206 00000KT P6SM SKC
     FM010800 00000KT P6SM OVC006
     FM011400 VRB03KT P6SM SCT022=

USA.gov is the U.S. government's official web portal to all federal, state and local government web resources and services.